sensor_id;sensor_type;location;lat;lon;timestamp;P1;durP1;ratioP1;P2;durP2;ratioP2
25249;SDS011;13201;51.148;13.738;2023-01-28T00:00:56;5.80;;;2.92;;
25249;SDS011;13201;51.148;13.738;2023-01-28T00:03:21;6.88;;;2.97;;
25249;SDS011;13201;51.148;13.738;2023-01-28T00:05:47;5.88;;;3.33;;
25249;SDS011;13201;51.148;13.738;2023-01-28T00:08:13;4.78;;;3.00;;
25249;SDS011;13201;51.148;13.738;2023-01-28T00:10:39;8.15;;;3.67;;
25249;SDS011;13201;51.148;13.738;2023-01-28T00:13:06;7.82;;;3.53;;
25249;SDS011;13201;51.148;13.738;2023-01-28T00:15:32;5.65;;;3.05;;
25249;SDS011;13201;51.148;13.738;2023-01-28T00:17:58;10.40;;;3.63;;
25249;SDS011;13201;51.148;13.738;2023-01-28T00:20:24;7.53;;;4.00;;
25249;SDS011;13201;51.148;13.738;2023-01-28T00:22:50;7.13;;;3.45;;
25249;SDS011;13201;51.148;13.738;2023-01-28T00:25:15;7.82;;;3.50;;
25249;SDS011;13201;51.148;13.738;2023-01-28T00:27:41;8.60;;;2.88;;
25249;SDS011;13201;51.148;13.738;2023-01-28T00:30:07;5.97;;;3.40;;
25249;SDS011;13201;51.148;13.738;2023-01-28T00:32:34;9.55;;;4.55;;
25249;SDS011;13201;51.148;13.738;2023-01-28T00:35:00;8.38;;;4.68;;
25249;SDS011;13201;51.148;13.738;2023-01-28T00:37:25;13.32;;;6.28;;
25249;SDS011;13201;51.148;13.738;2023-01-28T00:39:51;13.13;;;4.80;;
25249;SDS011;13201;51.148;13.738;2023-01-28T00:42:16;10.05;;;6.05;;
25249;SDS011;13201;51.148;13.738;2023-01-28T00:44:42;5.32;;;2.85;;
25249;SDS011;13201;51.148;13.738;2023-01-28T00:47:08;6.97;;;3.72;;
25249;SDS011;13201;51.148;13.738;2023-01-28T00:49:33;7.85;;;4.07;;
25249;SDS011;13201;51.148;13.738;2023-01-28T00:51:59;8.30;;;4.10;;
25249;SDS011;13201;51.148;13.738;2023-01-28T00:54:25;12.00;;;4.63;;
25249;SDS011;13201;51.148;13.738;2023-01-28T00:56:51;8.38;;;3.83;;
25249;SDS011;13201;51.148;13.738;2023-01-28T00:59:17;7.95;;;3.70;;
25249;SDS011;13201;51.148;13.738;2023-01-28T01:01:43;8.43;;;3.60;;
25249;SDS011;13201;51.148;13.738;2023-01-28T01:04:09;4.65;;;2.20;;
25249;SDS011;13201;51.148;13.738;2023-01-28T01:31:05;9.18;;;4.10;;
25249;SDS011;13201;51.148;13.738;2023-01-28T01:33:39;7.75;;;3.50;;
25249;SDS011;13201;51.148;13.738;2023-01-28T01:36:11;7.13;;;4.03;;
25249;SDS011;13201;51.148;13.738;2023-01-28T01:38:37;9.82;;;3.95;;
25249;SDS011;13201;51.148;13.738;2023-01-28T01:41:03;8.20;;;3.72;;
25249;SDS011;13201;51.148;13.738;2023-01-28T01:43:45;7.05;;;3.50;;
25249;SDS011;13201;51.148;13.738;2023-01-28T01:46:21;7.35;;;3.40;;
25249;SDS011;13201;51.148;13.738;2023-01-28T01:48:58;7.18;;;3.33;;
25249;SDS011;13201;51.148;13.738;2023-01-28T01:51:31;7.28;;;3.28;;
25249;SDS011;13201;51.148;13.738;2023-01-28T01:54:00;7.47;;;3.40;;
25249;SDS011;13201;51.148;13.738;2023-01-28T01:56:27;7.90;;;3.57;;
25249;SDS011;13201;51.148;13.738;2023-01-28T01:59:02;8.40;;;3.53;;
25249;SDS011;13201;51.148;13.738;2023-01-28T02:01:29;7.25;;;3.10;;
25249;SDS011;13201;51.148;13.738;2023-01-28T02:06:43;7.07;;;3.20;;
25249;SDS011;13201;51.148;13.738;2023-01-28T02:09:22;6.38;;;3.35;;
25249;SDS011;13201;51.148;13.738;2023-01-28T02:11:51;8.63;;;3.30;;
25249;SDS011;13201;51.148;13.738;2023-01-28T02:14:19;5.47;;;3.30;;
25249;SDS011;13201;51.148;13.738;2023-01-28T02:16:46;5.05;;;2.83;;
25249;SDS011;13201;51.148;13.738;2023-01-28T02:19:12;5.47;;;3.17;;
25249;SDS011;13201;51.148;13.738;2023-01-28T02:29:26;4.95;;;2.83;;
25249;SDS011;13201;51.148;13.738;2023-01-28T02:37:32;7.82;;;3.05;;
25249;SDS011;13201;51.148;13.738;2023-01-28T02:40:05;7.22;;;3.40;;
25249;SDS011;13201;51.148;13.738;2023-01-28T02:42:35;5.10;;;2.85;;
25249;SDS011;13201;51.148;13.738;2023-01-28T02:45:45;4.43;;;2.90;;
25249;SDS011;13201;51.148;13.738;2023-01-28T02:48:16;7.15;;;3.40;;
25249;SDS011;13201;51.148;13.738;2023-01-28T02:51:09;6.45;;;3.13;;
25249;SDS011;13201;51.148;13.738;2023-01-28T02:53:43;7.22;;;3.20;;
25249;SDS011;13201;51.148;13.738;2023-01-28T02:56:34;7.32;;;3.17;;
25249;SDS011;13201;51.148;13.738;2023-01-28T03:01:57;6.93;;;3.63;;
25249;SDS011;13201;51.148;13.738;2023-01-28T03:04:57;7.60;;;2.58;;
25249;SDS011;13201;51.148;13.738;2023-01-28T03:07:25;5.93;;;2.70;;
25249;SDS011;13201;51.148;13.738;2023-01-28T03:09:53;6.80;;;2.80;;
25249;SDS011;13201;51.148;13.738;2023-01-28T03:12:23;7.82;;;2.78;;
25249;SDS011;13201;51.148;13.738;2023-01-28T03:18:05;4.55;;;2.90;;
25249;SDS011;13201;51.148;13.738;2023-01-28T03:21:01;6.05;;;2.95;;
25249;SDS011;13201;51.148;13.738;2023-01-28T03:23:58;5.38;;;2.75;;
25249;SDS011;13201;51.148;13.738;2023-01-28T03:29:33;7.72;;;3.33;;
25249;SDS011;13201;51.148;13.738;2023-01-28T03:32:19;6.63;;;2.65;;
25249;SDS011;13201;51.148;13.738;2023-01-28T03:35:05;7.68;;;2.88;;
25249;SDS011;13201;51.148;13.738;2023-01-28T03:37:51;6.22;;;3.45;;
25249;SDS011;13201;51.148;13.738;2023-01-28T03:40:17;5.70;;;3.13;;
25249;SDS011;13201;51.148;13.738;2023-01-28T03:42:43;5.32;;;2.83;;
25249;SDS011;13201;51.148;13.738;2023-01-28T03:45:09;6.95;;;3.20;;
25249;SDS011;13201;51.148;13.738;2023-01-28T03:47:35;5.47;;;2.80;;
25249;SDS011;13201;51.148;13.738;2023-01-28T03:50:01;4.47;;;2.78;;
25249;SDS011;13201;51.148;13.738;2023-01-28T03:52:30;4.13;;;2.53;;
25249;SDS011;13201;51.148;13.738;2023-01-28T03:54:56;7.05;;;2.92;;
25249;SDS011;13201;51.148;13.738;2023-01-28T03:57:24;4.30;;;2.55;;
25249;SDS011;13201;51.148;13.738;2023-01-28T03:59:51;4.32;;;2.80;;
25249;SDS011;13201;51.148;13.738;2023-01-28T04:02:18;4.68;;;2.75;;
25249;SDS011;13201;51.148;13.738;2023-01-28T04:04:45;9.63;;;2.92;;
25249;SDS011;13201;51.148;13.738;2023-01-28T04:07:11;4.70;;;2.58;;
25249;SDS011;13201;51.148;13.738;2023-01-28T04:09:40;6.93;;;2.55;;
25249;SDS011;13201;51.148;13.738;2023-01-28T04:12:07;4.38;;;2.17;;
25249;SDS011;13201;51.148;13.738;2023-01-28T04:14:33;7.35;;;2.75;;
25249;SDS011;13201;51.148;13.738;2023-01-28T04:16:59;4.72;;;2.58;;
25249;SDS011;13201;51.148;13.738;2023-01-28T04:19:25;6.28;;;2.60;;
25249;SDS011;13201;51.148;13.738;2023-01-28T04:21:51;4.75;;;2.35;;
25249;SDS011;13201;51.148;13.738;2023-01-28T04:24:21;5.55;;;2.40;;
25249;SDS011;13201;51.148;13.738;2023-01-28T04:26:47;5.15;;;2.38;;
25249;SDS011;13201;51.148;13.738;2023-01-28T04:29:12;4.72;;;2.40;;
25249;SDS011;13201;51.148;13.738;2023-01-28T04:31:38;6.15;;;2.40;;
25249;SDS011;13201;51.148;13.738;2023-01-28T04:34:04;3.00;;;2.17;;
25249;SDS011;13201;51.148;13.738;2023-01-28T04:36:29;5.72;;;2.42;;
25249;SDS011;13201;51.148;13.738;2023-01-28T04:38:55;4.20;;;2.17;;
25249;SDS011;13201;51.148;13.738;2023-01-28T04:41:21;4.60;;;2.50;;
25249;SDS011;13201;51.148;13.738;2023-01-28T04:43:47;3.42;;;2.03;;
25249;SDS011;13201;51.148;13.738;2023-01-28T04:46:15;5.18;;;2.13;;
25249;SDS011;13201;51.148;13.738;2023-01-28T04:48:41;4.47;;;2.42;;
25249;SDS011;13201;51.148;13.738;2023-01-28T04:51:06;4.88;;;2.42;;
25249;SDS011;13201;51.148;13.738;2023-01-28T04:53:33;4.23;;;2.50;;
25249;SDS011;13201;51.148;13.738;2023-01-28T04:55:59;4.20;;;2.40;;
25249;SDS011;13201;51.148;13.738;2023-01-28T04:58:24;4.70;;;2.10;;
25249;SDS011;13201;51.148;13.738;2023-01-28T05:00:52;6.38;;;2.70;;
25249;SDS011;13201;51.148;13.738;2023-01-28T05:03:20;4.53;;;2.30;;
25249;SDS011;13201;51.148;13.738;2023-01-28T05:05:45;3.78;;;2.45;;
25249;SDS011;13201;51.148;13.738;2023-01-28T05:08:11;5.60;;;2.42;;
25249;SDS011;13201;51.148;13.738;2023-01-28T05:10:37;5.25;;;2.95;;
25249;SDS011;13201;51.148;13.738;2023-01-28T05:13:04;8.95;;;2.40;;
25249;SDS011;13201;51.148;13.738;2023-01-28T05:15:30;5.72;;;2.90;;
25249;SDS011;13201;51.148;13.738;2023-01-28T05:17:56;4.57;;;2.40;;
25249;SDS011;13201;51.148;13.738;2023-01-28T05:20:22;4.60;;;2.33;;
25249;SDS011;13201;51.148;13.738;2023-01-28T05:22:48;5.90;;;2.30;;
25249;SDS011;13201;51.148;13.738;2023-01-28T05:25:13;4.15;;;2.15;;
25249;SDS011;13201;51.148;13.738;2023-01-28T05:27:39;3.85;;;2.17;;
25249;SDS011;13201;51.148;13.738;2023-01-28T05:30:05;3.97;;;2.20;;
25249;SDS011;13201;51.148;13.738;2023-01-28T05:32:31;4.10;;;2.35;;
25249;SDS011;13201;51.148;13.738;2023-01-28T05:34:57;4.47;;;2.42;;
25249;SDS011;13201;51.148;13.738;2023-01-28T05:37:23;5.80;;;2.30;;
25249;SDS011;13201;51.148;13.738;2023-01-28T05:39:48;5.85;;;2.55;;
25249;SDS011;13201;51.148;13.738;2023-01-28T05:42:14;4.65;;;2.35;;
25249;SDS011;13201;51.148;13.738;2023-01-28T05:44:40;4.10;;;2.50;;
25249;SDS011;13201;51.148;13.738;2023-01-28T05:47:06;5.97;;;2.67;;
25249;SDS011;13201;51.148;13.738;2023-01-28T05:49:31;4.37;;;2.53;;
25249;SDS011;13201;51.148;13.738;2023-01-28T05:51:57;4.00;;;2.80;;
25249;SDS011;13201;51.148;13.738;2023-01-28T05:54:23;6.00;;;3.00;;
25249;SDS011;13201;51.148;13.738;2023-01-28T05:56:48;5.90;;;2.70;;
25249;SDS011;13201;51.148;13.738;2023-01-28T05:59:14;6.80;;;2.97;;
25249;SDS011;13201;51.148;13.738;2023-01-28T06:01:40;4.20;;;2.33;;
25249;SDS011;13201;51.148;13.738;2023-01-28T06:04:06;5.00;;;2.87;;
25249;SDS011;13201;51.148;13.738;2023-01-28T06:06:31;5.47;;;2.83;;
25249;SDS011;13201;51.148;13.738;2023-01-28T06:08:57;4.50;;;2.60;;
25249;SDS011;13201;51.148;13.738;2023-01-28T06:11:23;5.50;;;2.50;;
25249;SDS011;13201;51.148;13.738;2023-01-28T06:13:48;6.05;;;2.47;;
25249;SDS011;13201;51.148;13.738;2023-01-28T06:16:14;3.97;;;2.25;;
25249;SDS011;13201;51.148;13.738;2023-01-28T06:18:40;6.80;;;2.20;;
25249;SDS011;13201;51.148;13.738;2023-01-28T06:21:06;6.20;;;2.22;;
25249;SDS011;13201;51.148;13.738;2023-01-28T06:23:32;3.97;;;1.92;;
25249;SDS011;13201;51.148;13.738;2023-01-28T06:25:58;6.25;;;2.22;;
25249;SDS011;13201;51.148;13.738;2023-01-28T06:28:23;3.75;;;2.05;;
25249;SDS011;13201;51.148;13.738;2023-01-28T06:30:50;3.50;;;1.98;;
25249;SDS011;13201;51.148;13.738;2023-01-28T06:33:17;5.00;;;2.17;;
25249;SDS011;13201;51.148;13.738;2023-01-28T06:35:43;4.28;;;2.17;;
25249;SDS011;13201;51.148;13.738;2023-01-28T06:38:09;4.17;;;1.87;;
25249;SDS011;13201;51.148;13.738;2023-01-28T06:43:02;3.33;;;1.80;;
25249;SDS011;13201;51.148;13.738;2023-01-28T06:45:28;3.92;;;1.88;;
25249;SDS011;13201;51.148;13.738;2023-01-28T06:47:54;4.45;;;2.05;;
25249;SDS011;13201;51.148;13.738;2023-01-28T06:50:19;3.65;;;2.20;;
25249;SDS011;13201;51.148;13.738;2023-01-28T06:52:45;3.60;;;2.00;;
25249;SDS011;13201;51.148;13.738;2023-01-28T06:55:11;3.55;;;2.35;;
25249;SDS011;13201;51.148;13.738;2023-01-28T06:57:37;3.28;;;2.45;;
25249;SDS011;13201;51.148;13.738;2023-01-28T07:00:04;3.90;;;2.00;;
25249;SDS011;13201;51.148;13.738;2023-01-28T07:02:35;5.63;;;2.10;;
25249;SDS011;13201;51.148;13.738;2023-01-28T07:05:01;3.72;;;2.13;;
25249;SDS011;13201;51.148;13.738;2023-01-28T07:07:28;4.25;;;2.28;;
25249;SDS011;13201;51.148;13.738;2023-01-28T07:09:53;4.63;;;2.00;;
25249;SDS011;13201;51.148;13.738;2023-01-28T07:12:19;5.32;;;2.00;;
25249;SDS011;13201;51.148;13.738;2023-01-28T07:14:45;3.90;;;2.38;;
25249;SDS011;13201;51.148;13.738;2023-01-28T07:17:10;3.45;;;2.25;;
25249;SDS011;13201;51.148;13.738;2023-01-28T07:19:36;4.07;;;2.03;;
25249;SDS011;13201;51.148;13.738;2023-01-28T07:22:02;6.28;;;2.00;;
25249;SDS011;13201;51.148;13.738;2023-01-28T07:24:28;2.72;;;1.45;;
25249;SDS011;13201;51.148;13.738;2023-01-28T07:26:54;3.80;;;2.20;;
25249;SDS011;13201;51.148;13.738;2023-01-28T07:29:20;2.10;;;1.75;;
25249;SDS011;13201;51.148;13.738;2023-01-28T07:31:46;2.28;;;2.08;;
25249;SDS011;13201;51.148;13.738;2023-01-28T07:34:12;4.40;;;1.97;;
25249;SDS011;13201;51.148;13.738;2023-01-28T07:36:38;4.67;;;1.87;;
25249;SDS011;13201;51.148;13.738;2023-01-28T07:39:03;2.00;;;1.17;;
25249;SDS011;13201;51.148;13.738;2023-01-28T07:41:31;3.38;;;1.80;;
25249;SDS011;13201;51.148;13.738;2023-01-28T07:43:57;4.93;;;2.10;;
25249;SDS011;13201;51.148;13.738;2023-01-28T07:46:23;2.97;;;2.00;;
25249;SDS011;13201;51.148;13.738;2023-01-28T07:48:48;3.75;;;1.80;;
25249;SDS011;13201;51.148;13.738;2023-01-28T07:51:14;3.83;;;1.77;;
25249;SDS011;13201;51.148;13.738;2023-01-28T07:53:40;3.17;;;1.80;;
25249;SDS011;13201;51.148;13.738;2023-01-28T07:56:05;3.28;;;1.52;;
25249;SDS011;13201;51.148;13.738;2023-01-28T07:58:31;4.15;;;2.20;;
25249;SDS011;13201;51.148;13.738;2023-01-28T08:00:58;4.70;;;1.80;;
25249;SDS011;13201;51.148;13.738;2023-01-28T08:03:24;5.33;;;1.57;;
25249;SDS011;13201;51.148;13.738;2023-01-28T08:05:51;6.50;;;1.95;;
25249;SDS011;13201;51.148;13.738;2023-01-28T08:08:19;4.32;;;2.45;;
25249;SDS011;13201;51.148;13.738;2023-01-28T08:10:46;3.22;;;1.48;;
25249;SDS011;13201;51.148;13.738;2023-01-28T08:13:12;3.47;;;1.67;;
25249;SDS011;13201;51.148;13.738;2023-01-28T08:15:39;3.03;;;1.48;;
25249;SDS011;13201;51.148;13.738;2023-01-28T08:18:07;2.67;;;1.57;;
25249;SDS011;13201;51.148;13.738;2023-01-28T08:20:34;3.95;;;1.90;;
25249;SDS011;13201;51.148;13.738;2023-01-28T08:23:18;3.83;;;2.08;;
25249;SDS011;13201;51.148;13.738;2023-01-28T08:25:45;3.67;;;2.08;;
25249;SDS011;13201;51.148;13.738;2023-01-28T08:28:11;4.93;;;1.73;;
25249;SDS011;13201;51.148;13.738;2023-01-28T08:30:38;3.67;;;1.50;;
25249;SDS011;13201;51.148;13.738;2023-01-28T08:33:05;3.95;;;2.20;;
25249;SDS011;13201;51.148;13.738;2023-01-28T08:35:32;3.28;;;1.42;;
25249;SDS011;13201;51.148;13.738;2023-01-28T08:37:59;3.60;;;1.52;;
25249;SDS011;13201;51.148;13.738;2023-01-28T08:40:26;4.97;;;1.48;;
25249;SDS011;13201;51.148;13.738;2023-01-28T08:42:52;7.05;;;1.83;;
25249;SDS011;13201;51.148;13.738;2023-01-28T08:45:19;4.43;;;1.70;;
25249;SDS011;13201;51.148;13.738;2023-01-28T08:47:59;4.80;;;2.53;;
25249;SDS011;13201;51.148;13.738;2023-01-28T08:50:28;3.55;;;1.77;;
25249;SDS011;13201;51.148;13.738;2023-01-28T08:52:59;5.28;;;1.90;;
25249;SDS011;13201;51.148;13.738;2023-01-28T08:55:26;5.43;;;1.63;;
25249;SDS011;13201;51.148;13.738;2023-01-28T08:57:53;3.55;;;1.73;;
25249;SDS011;13201;51.148;13.738;2023-01-28T09:00:19;4.68;;;1.88;;
25249;SDS011;13201;51.148;13.738;2023-01-28T09:02:45;3.28;;;1.75;;
25249;SDS011;13201;51.148;13.738;2023-01-28T09:05:12;1.83;;;1.00;;
25249;SDS011;13201;51.148;13.738;2023-01-28T09:07:39;2.88;;;1.52;;
25249;SDS011;13201;51.148;13.738;2023-01-28T09:10:05;2.72;;;0.88;;
25249;SDS011;13201;51.148;13.738;2023-01-28T09:12:31;4.20;;;1.58;;
25249;SDS011;13201;51.148;13.738;2023-01-28T09:14:57;2.75;;;1.45;;
25249;SDS011;13201;51.148;13.738;2023-01-28T09:17:23;2.00;;;1.05;;
25249;SDS011;13201;51.148;13.738;2023-01-28T09:19:49;2.67;;;1.20;;
25249;SDS011;13201;51.148;13.738;2023-01-28T09:22:15;1.98;;;1.17;;
25249;SDS011;13201;51.148;13.738;2023-01-28T09:24:41;3.08;;;1.30;;
25249;SDS011;13201;51.148;13.738;2023-01-28T09:27:07;2.65;;;1.15;;
25249;SDS011;13201;51.148;13.738;2023-01-28T09:29:33;3.53;;;1.00;;
25249;SDS011;13201;51.148;13.738;2023-01-28T09:31:59;3.30;;;1.50;;
25249;SDS011;13201;51.148;13.738;2023-01-28T09:34:25;1.70;;;0.90;;
25249;SDS011;13201;51.148;13.738;2023-01-28T09:36:50;1.93;;;1.30;;
25249;SDS011;13201;51.148;13.738;2023-01-28T09:39:16;4.20;;;2.13;;
25249;SDS011;13201;51.148;13.738;2023-01-28T09:47:27;3.78;;;2.00;;
25249;SDS011;13201;51.148;13.738;2023-01-28T09:50:02;2.92;;;1.70;;
25249;SDS011;13201;51.148;13.738;2023-01-28T09:52:33;3.20;;;1.90;;
25249;SDS011;13201;51.148;13.738;2023-01-28T09:55:03;1.50;;;1.27;;
25249;SDS011;13201;51.148;13.738;2023-01-28T09:57:37;4.15;;;1.42;;
25249;SDS011;13201;51.148;13.738;2023-01-28T10:00:14;13.32;;;6.15;;
25249;SDS011;13201;51.148;13.738;2023-01-28T10:11:05;3.63;;;1.55;;
25249;SDS011;13201;51.148;13.738;2023-01-28T10:16:08;6.07;;;2.40;;
25249;SDS011;13201;51.148;13.738;2023-01-28T10:19:00;3.63;;;2.60;;
25249;SDS011;13201;51.148;13.738;2023-01-28T10:21:48;4.05;;;2.00;;
25249;SDS011;13201;51.148;13.738;2023-01-28T10:24:33;3.78;;;1.60;;
25249;SDS011;13201;51.148;13.738;2023-01-28T10:27:14;4.13;;;1.85;;
25249;SDS011;13201;51.148;13.738;2023-01-28T10:29:43;2.20;;;1.40;;
25249;SDS011;13201;51.148;13.738;2023-01-28T10:34:52;2.92;;;1.70;;
25249;SDS011;13201;51.148;13.738;2023-01-28T10:37:17;4.57;;;1.73;;
25249;SDS011;13201;51.148;13.738;2023-01-28T10:39:44;2.00;;;1.45;;
25249;SDS011;13201;51.148;13.738;2023-01-28T10:42:19;3.93;;;1.80;;
25249;SDS011;13201;51.148;13.738;2023-01-28T10:44:59;2.72;;;1.75;;
25249;SDS011;13201;51.148;13.738;2023-01-28T10:47:40;1.98;;;1.33;;
25249;SDS011;13201;51.148;13.738;2023-01-28T10:50:19;5.07;;;1.80;;
25249;SDS011;13201;51.148;13.738;2023-01-28T10:55:24;3.05;;;1.67;;
25249;SDS011;13201;51.148;13.738;2023-01-28T10:57:54;2.72;;;1.55;;
25249;SDS011;13201;51.148;13.738;2023-01-28T11:00:24;2.57;;;1.80;;
25249;SDS011;13201;51.148;13.738;2023-01-28T11:02:53;5.43;;;2.05;;
25249;SDS011;13201;51.148;13.738;2023-01-28T11:05:20;3.35;;;1.70;;
25249;SDS011;13201;51.148;13.738;2023-01-28T11:07:50;2.03;;;1.30;;
25249;SDS011;13201;51.148;13.738;2023-01-28T11:10:36;4.28;;;1.25;;
25249;SDS011;13201;51.148;13.738;2023-01-28T11:13:04;3.60;;;1.60;;
25249;SDS011;13201;51.148;13.738;2023-01-28T11:15:31;4.55;;;1.45;;
25249;SDS011;13201;51.148;13.738;2023-01-28T11:17:59;3.20;;;1.45;;
25249;SDS011;13201;51.148;13.738;2023-01-28T11:20:30;3.92;;;1.38;;
25249;SDS011;13201;51.148;13.738;2023-01-28T11:23:01;2.28;;;1.40;;
25249;SDS011;13201;51.148;13.738;2023-01-28T11:28:00;1.90;;;1.40;;
25249;SDS011;13201;51.148;13.738;2023-01-28T11:30:33;3.72;;;1.60;;
25249;SDS011;13201;51.148;13.738;2023-01-28T11:35:56;4.32;;;1.63;;
25249;SDS011;13201;51.148;13.738;2023-01-28T11:38:28;3.03;;;1.15;;
25249;SDS011;13201;51.148;13.738;2023-01-28T11:40:55;2.00;;;1.60;;
25249;SDS011;13201;51.148;13.738;2023-01-28T11:43:27;2.58;;;1.70;;
25249;SDS011;13201;51.148;13.738;2023-01-28T11:48:54;5.68;;;2.25;;
25249;SDS011;13201;51.148;13.738;2023-01-28T11:51:23;7.57;;;3.25;;
25249;SDS011;13201;51.148;13.738;2023-01-28T12:10:37;4.05;;;1.60;;
25249;SDS011;13201;51.148;13.738;2023-01-28T12:19:17;4.97;;;2.80;;
25249;SDS011;13201;51.148;13.738;2023-01-28T12:22:45;6.72;;;2.67;;
25249;SDS011;13201;51.148;13.738;2023-01-28T12:25:26;10.63;;;3.92;;
25249;SDS011;13201;51.148;13.738;2023-01-28T12:42:11;2.35;;;1.23;;
25249;SDS011;13201;51.148;13.738;2023-01-28T12:44:45;2.13;;;1.30;;
25249;SDS011;13201;51.148;13.738;2023-01-28T12:47:36;3.22;;;2.00;;
25249;SDS011;13201;51.148;13.738;2023-01-28T12:50:03;6.95;;;2.40;;
25249;SDS011;13201;51.148;13.738;2023-01-28T12:52:43;5.10;;;2.80;;
25249;SDS011;13201;51.148;13.738;2023-01-28T12:55:19;6.47;;;2.33;;
25249;SDS011;13201;51.148;13.738;2023-01-28T12:57:59;5.00;;;2.85;;
25249;SDS011;13201;51.148;13.738;2023-01-28T13:05:51;5.57;;;2.10;;
25249;SDS011;13201;51.148;13.738;2023-01-28T13:08:25;13.95;;;4.00;;
25249;SDS011;13201;51.148;13.738;2023-01-28T13:10:51;9.55;;;4.15;;
25249;SDS011;13201;51.148;13.738;2023-01-28T13:13:24;6.25;;;2.45;;
25249;SDS011;13201;51.148;13.738;2023-01-28T13:15:56;9.15;;;2.80;;
25249;SDS011;13201;51.148;13.738;2023-01-28T13:24:34;5.85;;;2.60;;
25249;SDS011;13201;51.148;13.738;2023-01-28T13:31:40;3.08;;;1.30;;
25249;SDS011;13201;51.148;13.738;2023-01-28T13:34:30;2.17;;;1.40;;
25249;SDS011;13201;51.148;13.738;2023-01-28T13:37:12;2.35;;;1.45;;
25249;SDS011;13201;51.148;13.738;2023-01-28T13:39:53;3.15;;;1.48;;
25249;SDS011;13201;51.148;13.738;2023-01-28T13:42:28;4.50;;;2.00;;
25249;SDS011;13201;51.148;13.738;2023-01-28T13:44:55;3.95;;;1.70;;
25249;SDS011;13201;51.148;13.738;2023-01-28T13:47:32;2.88;;;1.33;;
25249;SDS011;13201;51.148;13.738;2023-01-28T13:50:03;3.38;;;2.28;;
25249;SDS011;13201;51.148;13.738;2023-01-28T14:03:17;4.28;;;2.00;;
25249;SDS011;13201;51.148;13.738;2023-01-28T14:20:13;3.45;;;1.88;;
25249;SDS011;13201;51.148;13.738;2023-01-28T14:22:40;4.43;;;1.60;;
25249;SDS011;13201;51.148;13.738;2023-01-28T14:25:11;1.50;;;1.20;;
25249;SDS011;13201;51.148;13.738;2023-01-28T14:27:41;3.40;;;1.50;;
25249;SDS011;13201;51.148;13.738;2023-01-28T14:32:55;1.85;;;1.42;;
25249;SDS011;13201;51.148;13.738;2023-01-28T14:35:24;2.33;;;1.40;;
25249;SDS011;13201;51.148;13.738;2023-01-28T14:37:55;2.53;;;1.50;;
25249;SDS011;13201;51.148;13.738;2023-01-28T14:40:23;4.82;;;1.70;;
25249;SDS011;13201;51.148;13.738;2023-01-28T14:42:51;4.00;;;1.65;;
25249;SDS011;13201;51.148;13.738;2023-01-28T14:48:22;5.55;;;2.15;;
25249;SDS011;13201;51.148;13.738;2023-01-28T14:50:59;4.68;;;2.08;;
25249;SDS011;13201;51.148;13.738;2023-01-28T14:59:20;5.93;;;2.83;;
25249;SDS011;13201;51.148;13.738;2023-01-28T15:01:48;3.30;;;1.70;;
25249;SDS011;13201;51.148;13.738;2023-01-28T15:04:30;3.50;;;1.77;;
25249;SDS011;13201;51.148;13.738;2023-01-28T15:07:00;3.25;;;1.80;;
25249;SDS011;13201;51.148;13.738;2023-01-28T15:09:39;4.20;;;1.83;;
25249;SDS011;13201;51.148;13.738;2023-01-28T15:12:05;2.10;;;1.45;;
25249;SDS011;13201;51.148;13.738;2023-01-28T15:16:57;3.87;;;1.90;;
25249;SDS011;13201;51.148;13.738;2023-01-28T15:19:31;4.50;;;1.83;;
25249;SDS011;13201;51.148;13.738;2023-01-28T15:22:03;5.07;;;2.33;;
25249;SDS011;13201;51.148;13.738;2023-01-28T15:24:32;5.78;;;2.42;;
25249;SDS011;13201;51.148;13.738;2023-01-28T15:27:00;3.05;;;1.92;;
25249;SDS011;13201;51.148;13.738;2023-01-28T15:31:56;2.20;;;1.30;;
25249;SDS011;13201;51.148;13.738;2023-01-28T15:34:22;1.90;;;1.20;;
25249;SDS011;13201;51.148;13.738;2023-01-28T15:36:54;2.35;;;1.60;;
25249;SDS011;13201;51.148;13.738;2023-01-28T15:44:18;3.22;;;2.13;;
25249;SDS011;13201;51.148;13.738;2023-01-28T15:46:56;3.63;;;2.30;;
25249;SDS011;13201;51.148;13.738;2023-01-28T15:49:31;4.68;;;2.20;;
25249;SDS011;13201;51.148;13.738;2023-01-28T15:51:59;6.25;;;2.92;;
25249;SDS011;13201;51.148;13.738;2023-01-28T15:54:25;4.13;;;1.97;;
25249;SDS011;13201;51.148;13.738;2023-01-28T15:56:54;1.33;;;1.10;;
25249;SDS011;13201;51.148;13.738;2023-01-28T16:04:42;3.88;;;1.52;;
25249;SDS011;13201;51.148;13.738;2023-01-28T16:09:44;2.90;;;1.60;;
25249;SDS011;13201;51.148;13.738;2023-01-28T16:12:19;4.38;;;2.10;;
25249;SDS011;13201;51.148;13.738;2023-01-28T16:14:49;4.28;;;2.00;;
25249;SDS011;13201;51.148;13.738;2023-01-28T16:17:20;4.40;;;1.83;;
25249;SDS011;13201;51.148;13.738;2023-01-28T16:19:58;3.17;;;1.67;;
25249;SDS011;13201;51.148;13.738;2023-01-28T16:25:00;4.25;;;2.38;;
25249;SDS011;13201;51.148;13.738;2023-01-28T16:29:53;2.47;;;1.10;;
25249;SDS011;13201;51.148;13.738;2023-01-28T16:32:30;0.97;;;0.83;;
25249;SDS011;13201;51.148;13.738;2023-01-28T16:34:59;3.38;;;1.23;;
25249;SDS011;13201;51.148;13.738;2023-01-28T16:37:25;3.17;;;1.30;;
25249;SDS011;13201;51.148;13.738;2023-01-28T16:39:51;2.97;;;1.60;;
25249;SDS011;13201;51.148;13.738;2023-01-28T16:42:17;5.93;;;2.97;;
25249;SDS011;13201;51.148;13.738;2023-01-28T16:44:43;7.72;;;3.30;;
25249;SDS011;13201;51.148;13.738;2023-01-28T16:47:08;14.90;;;5.17;;
25249;SDS011;13201;51.148;13.738;2023-01-28T16:49:34;14.95;;;4.85;;
25249;SDS011;13201;51.148;13.738;2023-01-28T16:52:00;2.00;;;1.33;;
25249;SDS011;13201;51.148;13.738;2023-01-28T16:54:27;4.13;;;1.40;;
25249;SDS011;13201;51.148;13.738;2023-01-28T16:56:53;4.32;;;1.10;;
25249;SDS011;13201;51.148;13.738;2023-01-28T16:59:20;4.10;;;2.17;;
25249;SDS011;13201;51.148;13.738;2023-01-28T17:01:46;3.95;;;1.95;;
25249;SDS011;13201;51.148;13.738;2023-01-28T17:04:12;2.00;;;1.33;;
25249;SDS011;13201;51.148;13.738;2023-01-28T17:06:38;2.45;;;1.20;;
25249;SDS011;13201;51.148;13.738;2023-01-28T17:09:06;3.05;;;1.20;;
25249;SDS011;13201;51.148;13.738;2023-01-28T17:11:32;3.63;;;1.30;;
25249;SDS011;13201;51.148;13.738;2023-01-28T17:13:59;2.45;;;1.45;;
25249;SDS011;13201;51.148;13.738;2023-01-28T17:16:25;1.67;;;0.93;;
25249;SDS011;13201;51.148;13.738;2023-01-28T17:18:52;1.63;;;1.02;;
25249;SDS011;13201;51.148;13.738;2023-01-28T17:21:18;1.25;;;1.02;;
25249;SDS011;13201;51.148;13.738;2023-01-28T17:23:44;1.73;;;1.30;;
25249;SDS011;13201;51.148;13.738;2023-01-28T17:26:11;1.60;;;0.93;;
25249;SDS011;13201;51.148;13.738;2023-01-28T17:28:38;4.18;;;1.55;;
25249;SDS011;13201;51.148;13.738;2023-01-28T17:31:04;2.78;;;1.40;;
25249;SDS011;13201;51.148;13.738;2023-01-28T17:33:36;4.95;;;2.38;;
25249;SDS011;13201;51.148;13.738;2023-01-28T17:36:02;3.13;;;1.88;;
25249;SDS011;13201;51.148;13.738;2023-01-28T17:38:28;5.82;;;2.10;;
25249;SDS011;13201;51.148;13.738;2023-01-28T17:40:59;6.67;;;2.63;;
25249;SDS011;13201;51.148;13.738;2023-01-28T17:43:29;7.47;;;3.33;;
25249;SDS011;13201;51.148;13.738;2023-01-28T17:45:55;4.70;;;2.60;;
25249;SDS011;13201;51.148;13.738;2023-01-28T17:48:21;4.07;;;2.78;;
25249;SDS011;13201;51.148;13.738;2023-01-28T17:50:46;10.48;;;5.88;;
25249;SDS011;13201;51.148;13.738;2023-01-28T17:53:12;2.80;;;1.83;;
25249;SDS011;13201;51.148;13.738;2023-01-28T17:55:38;3.25;;;2.00;;
25249;SDS011;13201;51.148;13.738;2023-01-28T17:58:03;5.32;;;2.25;;
25249;SDS011;13201;51.148;13.738;2023-01-28T18:00:30;3.17;;;2.20;;